createdAt,value
2019-06-01T17:37:28.347Z,24.54
2019-06-01T17:39:57.090Z,24.40
2019-06-01T17:42:25.831Z,24.44
2019-06-01T17:44:54.650Z,24.41
2019-06-01T17:47:27.079Z,24.34
2019-06-01T17:49:54.086Z,24.41
2019-06-01T17:52:22.806Z,24.12
2019-06-01T17:54:52.385Z,24.19
2019-06-01T17:57:21.102Z,24.17
2019-06-01T17:59:49.807Z,24.27
2019-06-01T18:02:18.974Z,23.98
2019-06-01T18:04:47.780Z,23.72
2019-06-01T18:07:16.577Z,23.79
2019-06-01T18:09:45.692Z,23.83
2019-06-01T18:12:14.417Z,23.52
2019-06-01T18:14:43.129Z,23.48
2019-06-01T18:17:12.396Z,23.43
2019-06-01T18:19:41.397Z,23.28
2019-06-01T18:22:10.946Z,22.90
2019-06-01T18:24:39.804Z,23.04
2019-06-01T18:27:08.652Z,23.03
2019-06-01T18:29:39.290Z,22.66
2019-06-01T18:32:07.980Z,22.59
2019-06-01T18:34:37.094Z,22.17
2019-06-01T18:37:07.342Z,22.12
2019-06-01T18:39:36.441Z,22.14
2019-06-01T18:42:06.286Z,21.91
2019-06-01T18:44:35.134Z,21.82
2019-06-01T18:47:05.646Z,21.72
2019-06-01T18:49:34.703Z,21.41
2019-06-01T18:52:04.167Z,21.43
2019-06-01T18:54:35.140Z,21.08
2019-06-01T18:57:11.977Z,21.05
2019-06-01T18:59:34.623Z,20.75
2019-06-01T19:02:04.276Z,20.78
2019-06-01T19:04:33.290Z,20.57
2019-06-01T19:07:02.211Z,20.45
2019-06-01T19:09:31.127Z,20.37
2019-06-01T19:12:00.124Z,20.21
2019-06-01T19:14:28.921Z,20.28
2019-06-01T19:16:57.653Z,20.16
2019-06-01T19:19:26.385Z,20.09
2019-06-01T19:21:55.162Z,19.99
2019-06-01T19:24:24.368Z,19.96
2019-06-01T19:26:53.290Z,19.93
2019-06-01T19:29:22.130Z,19.80
2019-06-01T19:31:51.664Z,19.73
